Terminal Aerodrome Forecast
Issued by NWS

Home | Current Version | Previous Version | Text Only | Print | Product List | Glossary On
Versions: 1 2 3 4 5 6 7 8 9 10 11 12 13 14 15 16 17 18 19 20
000
FTUS46 KEKA 290826 AAA
TAFCEC
TAF AMD
KCEC 290826Z 2908/3006 33018G28KT 3SM -SHRA BR BKN010 BKN020 OVC040
      TEMPO 2908/2911 1 1/2SM +RA BR SCT005 OVC030
     FM291100 34012KT 4SM -SHRA BR BKN007 OVC015
     FM291500 33010KT P6SM -SHRA FEW009 SCT015 BKN035=

USA.gov is the U.S. government's official web portal to all federal, state and local government web resources and services.